Time,TemperatureF,DewpointF,PressureIn,WindDirection,WindDirectionDegrees,WindSpeedMPH,WindSpeedGustMPH,Humidity,HourlyPrecipIn,Conditions,Clouds,dailyrainin,SoftwareType,DateUTC
2018-04-26 00:35:00,53.0,49.0,-100.00,North,360,3.0,6.0,84,-99.99,,,-99.99,,2018-04-26 00:35:00,
2018-04-26 01:06:00,53.0,49.0,-100.00,NE,35,3.0,4.0,85,-99.99,,,-99.99,,2018-04-26 01:06:00,
2018-04-26 01:35:00,53.0,49.0,-100.00,NNE,30,4.0,6.0,86,-99.99,,,-99.99,,2018-04-26 01:35:00,
2018-04-26 02:06:00,52.0,48.0,-100.00,NE,35,7.0,13.0,86,-99.99,,,-99.99,,2018-04-26 02:06:00,
2018-04-26 02:36:00,51.0,47.0,-100.00,NNE,20,4.0,9.0,87,-99.99,,,-99.99,,2018-04-26 02:36:00,
2018-04-26 03:06:00,51.0,47.0,-100.00,North,5,5.0,8.0,87,-99.99,,,-99.99,,2018-04-26 03:06:00,
2018-04-26 03:36:00,51.0,47.0,-100.00,North,360,8.0,11.0,87,-99.99,,,-99.99,,2018-04-26 03:36:00,
2018-04-26 04:07:00,50.0,46.0,-100.00,North,10,5.0,8.0,87,-99.99,,,-99.99,,2018-04-26 04:07:00,
2018-04-26 04:36:00,50.0,46.0,-100.00,NNE,20,3.0,6.0,87,-99.99,,,-99.99,,2018-04-26 04:36:00,
2018-04-26 05:06:00,50.0,46.0,-100.00,North,360,5.0,7.0,88,-99.99,,,-99.99,,2018-04-26 05:06:00,
2018-04-26 05:36:00,49.0,46.0,-100.00,North,360,6.0,9.0,88,-99.99,,,-99.99,,2018-04-26 05:36:00,
2018-04-26 06:06:00,49.0,46.0,-100.00,North,360,5.0,8.0,88,-99.99,,,-99.99,,2018-04-26 06:06:00,
2018-04-26 07:06:00,49.0,46.0,-100.00,North,360,5.0,9.0,88,-99.99,,,-99.99,,2018-04-26 07:06:00,
2018-04-26 07:35:00,49.0,46.0,-100.00,North,360,5.0,9.0,88,-99.99,,,-99.99,,2018-04-26 07:35:00,
2018-04-26 08:06:00,49.0,46.0,-100.00,NNW,335,5.0,11.0,88,-99.99,,,-99.99,,2018-04-26 08:06:00,
2018-04-26 08:35:00,49.0,46.0,-100.00,NNW,340,6.0,10.0,88,-99.99,,,-99.99,,2018-04-26 08:35:00,
2018-04-26 09:06:00,49.0,46.0,-100.00,NE,40,3.0,4.0,88,-99.99,,,-99.99,,2018-04-26 09:06:00,
2018-04-26 09:36:00,49.0,46.0,-100.00,ENE,75,4.0,7.0,88,-99.99,,,-99.99,,2018-04-26 09:36:00,
2018-04-26 10:37:00,49.0,46.0,-100.00,North,355,7.0,10.0,88,-99.99,,,-99.99,,2018-04-26 10:37:00,
2018-04-26 11:07:00,49.0,46.0,-100.00,North,355,7.0,11.0,88,-99.99,,,-99.99,,2018-04-26 11:07:00,
2018-04-26 11:38:00,49.0,46.0,-100.00,NNW,340,7.0,11.0,89,-99.99,,,-99.99,,2018-04-26 11:38:00,
2018-04-26 12:06:00,49.0,46.0,-100.00,North,350,7.0,12.0,89,-99.99,,,-99.99,,2018-04-26 12:06:00,
2018-04-26 12:36:00,49.0,46.0,-100.00,NW,325,7.0,12.0,89,-99.99,,,-99.99,,2018-04-26 12:36:00,
2018-04-26 13:06:00,49.0,46.0,-100.00,NW,315,6.0,11.0,89,-99.99,,,-99.99,,2018-04-26 13:06:00,
2018-04-26 13:36:00,49.0,46.0,-100.00,NNW,340,8.0,11.0,89,-99.99,,,-99.99,,2018-04-26 13:36:00,
2018-04-26 14:06:00,49.0,46.0,-100.00,NNW,340,9.0,11.0,89,-99.99,,,-99.99,,2018-04-26 14:06:00,
2018-04-26 14:35:00,49.0,46.0,-100.00,NNW,335,6.0,10.0,88,-99.99,,,-99.99,,2018-04-26 14:35:00,
2018-04-26 15:05:00,50.0,46.0,-100.00,NNW,335,9.0,12.0,88,-99.99,,,-99.99,,2018-04-26 15:05:00,
2018-04-26 15:37:00,51.0,47.0,-100.00,NNE,20,7.0,13.0,88,-99.99,,,-99.99,,2018-04-26 15:37:00,
2018-04-26 16:06:00,51.0,47.0,-100.00,North,360,-999.9,-999.0,84,-99.99,,,-99.99,,2018-04-26 16:06:00,
2018-04-26 18:07:00,58.0,47.0,-100.00,NW,325,3.0,8.0,66,-99.99,,,-99.99,,2018-04-26 18:07:00,
2018-04-26 19:08:00,58.0,47.0,-100.00,North,360,3.0,6.0,65,-99.99,,,-99.99,,2018-04-26 19:08:00,
2018-04-26 20:07:00,63.0,48.0,-100.00,WNW,290,7.0,13.0,58,-99.99,,,-99.99,,2018-04-26 20:07:00,
2018-04-26 20:39:00,65.0,47.0,-100.00,NW,305,6.0,-999.0,52,-99.99,,,-99.99,,2018-04-26 20:39:00,
2018-04-26 21:07:00,65.0,47.0,-100.00,NW,310,6.0,9.0,52,-99.99,,,-99.99,,2018-04-26 21:07:00,
2018-04-26 21:37:00,64.0,47.0,-100.00,NW,320,5.0,12.0,54,-99.99,,,-99.99,,2018-04-26 21:37:00,